createdAt,value
2023-05-01T00:00:52.567Z,61.83
2023-05-01T00:01:52.566Z,62.49
2023-05-01T00:02:52.601Z,62.44
2023-05-01T00:03:52.996Z,62.67
2023-05-01T00:04:52.625Z,62.37
2023-05-01T00:05:52.469Z,62.89
2023-05-01T00:06:52.696Z,62.30
2023-05-01T00:07:52.461Z,61.89
2023-05-01T00:08:52.480Z,62.35
2023-05-01T00:09:52.477Z,62.56
2023-05-01T00:10:52.498Z,62.02
2023-05-01T00:11:52.559Z,62.27
2023-05-01T00:12:52.422Z,62.67
2023-05-01T00:13:52.395Z,62.37
2023-05-01T00:14:52.373Z,62.68
2023-05-01T00:15:52.535Z,62.81
2023-05-01T00:16:52.546Z,62.95
2023-05-01T00:17:52.418Z,62.69
2023-05-01T00:18:52.390Z,62.78
2023-05-01T00:19:52.386Z,62.91
2023-05-01T00:20:52.319Z,62.66
2023-05-01T00:21:52.384Z,62.96
2023-05-01T00:22:52.299Z,62.73
2023-05-01T00:23:52.342Z,62.52
2023-05-01T00:24:52.333Z,62.59
2023-05-01T00:25:52.296Z,63.04
2023-05-01T00:26:52.263Z,62.97
2023-05-01T00:27:52.248Z,62.91
2023-05-01T00:28:52.251Z,63.02
2023-05-01T00:29:52.257Z,62.48
2023-05-01T00:30:52.248Z,62.27
2023-05-01T00:31:52.292Z,62.03
2023-05-01T00:32:52.321Z,62.37
2023-05-01T00:33:52.194Z,62.27
2023-05-01T00:34:52.207Z,62.01
2023-05-01T00:35:52.196Z,62.30
2023-05-01T00:36:52.205Z,62.23
2023-05-01T00:37:52.211Z,62.51
2023-05-01T00:38:52.171Z,61.97
2023-05-01T00:39:52.177Z,61.74
2023-05-01T00:40:52.152Z,61.64
2023-05-01T00:41:52.128Z,61.96
2023-05-01T00:42:52.149Z,61.63
2023-05-01T00:43:52.075Z,61.53
2023-05-01T00:44:52.138Z,61.82
2023-05-01T00:45:52.098Z,61.78
2023-05-01T00:46:52.105Z,61.46
2023-05-01T00:47:52.139Z,61.45
2023-05-01T00:48:52.048Z,61.82
2023-05-01T00:49:52.042Z,61.96
2023-05-01T00:50:52.035Z,61.74
2023-05-01T00:51:52.042Z,61.92
2023-05-01T00:52:52.010Z,61.88
2023-05-01T00:53:51.975Z,61.78
2023-05-01T00:54:52.033Z,61.69
2023-05-01T00:55:52.008Z,61.87
2023-05-01T00:56:52.005Z,62.04
2023-05-01T00:57:51.970Z,62.30
2023-05-01T00:58:51.926Z,62.27
2023-05-01T00:59:51.926Z,61.16
2023-05-01T01:00:51.975Z,60.58
2023-05-01T01:01:53.229Z,60.65
2023-05-01T01:02:51.957Z,61.50
2023-05-01T01:03:51.915Z,61.32
2023-05-01T01:04:51.971Z,61.62
2023-05-01T01:05:51.887Z,61.53
2023-05-01T01:06:52.132Z,61.80
2023-05-01T01:07:51.889Z,61.52
2023-05-01T01:08:51.872Z,61.46
2023-05-01T01:09:51.839Z,61.47
2023-05-01T01:10:51.814Z,61.80
2023-05-01T01:11:51.850Z,61.52
2023-05-01T01:12:51.822Z,61.73
2023-05-01T01:13:51.781Z,61.45
2023-05-01T01:14:51.810Z,61.24
2023-05-01T01:15:51.780Z,61.10
2023-05-01T01:16:51.792Z,61.65
2023-05-01T01:17:51.810Z,62.21
2023-05-01T01:18:51.762Z,62.02
2023-05-01T01:19:51.715Z,62.59
2023-05-01T01:20:51.741Z,62.78
2023-05-01T01:21:51.711Z,62.15
2023-05-01T01:22:51.672Z,62.59
2023-05-01T01:23:51.699Z,62.51
2023-05-01T01:24:51.697Z,62.50
2023-05-01T01:25:51.716Z,62.33
2023-05-01T01:26:51.638Z,62.49
2023-05-01T01:27:51.633Z,62.52
2023-05-01T01:28:51.664Z,62.85
2023-05-01T01:29:51.703Z,62.79
2023-05-01T01:30:51.656Z,62.63
2023-05-01T01:31:51.610Z,62.67
2023-05-01T01:32:51.618Z,62.24
2023-05-01T01:33:51.590Z,63.09
2023-05-01T01:34:51.571Z,63.13
2023-05-01T01:35:51.581Z,63.16
2023-05-01T01:36:51.530Z,63.18
2023-05-01T01:37:51.531Z,62.02
2023-05-01T01:38:51.531Z,62.22
2023-05-01T01:39:51.491Z,62.22
2023-05-01T01:40:51.508Z,62.30
2023-05-01T01:41:51.546Z,61.90
2023-05-01T01:42:51.541Z,62.19
2023-05-01T01:43:51.483Z,62.02
2023-05-01T01:44:51.481Z,62.16
2023-05-01T01:45:53.624Z,61.85
2023-05-01T01:46:51.497Z,61.53
2023-05-01T01:47:51.446Z,61.62
2023-05-01T01:48:51.456Z,61.86
2023-05-01T01:49:51.397Z,62.11
2023-05-01T01:50:51.400Z,61.89
2023-05-01T01:51:51.423Z,61.98
2023-05-01T01:52:51.388Z,62.09
2023-05-01T01:53:51.483Z,62.09
2023-05-01T01:54:51.365Z,62.33
2023-05-01T01:55:51.384Z,62.88
2023-05-01T01:56:51.377Z,62.56
2023-05-01T01:57:51.356Z,62.19
2023-05-01T01:58:51.386Z,62.53
2023-05-01T01:59:51.360Z,62.58
2023-05-01T02:00:51.286Z,62.71
2023-05-01T02:01:51.356Z,62.64
2023-05-01T02:02:51.366Z,62.45
2023-05-01T02:03:51.341Z,62.46
2023-05-01T02:04:51.305Z,62.75
2023-05-01T02:05:51.274Z,62.14
2023-05-01T02:06:51.331Z,62.20
2023-05-01T02:07:51.250Z,62.28
2023-05-01T02:08:51.280Z,62.00
2023-05-01T02:09:51.200Z,61.86
2023-05-01T02:10:51.255Z,62.47
2023-05-01T02:11:51.192Z,62.22
2023-05-01T02:12:51.171Z,62.13
2023-05-01T02:13:51.155Z,62.08
2023-05-01T02:14:51.179Z,62.35
2023-05-01T02:15:51.321Z,62.34
2023-05-01T02:16:51.162Z,62.22
2023-05-01T02:17:51.169Z,62.27
2023-05-01T02:18:51.201Z,62.30
2023-05-01T02:19:51.101Z,62.19
2023-05-01T02:20:51.167Z,62.62
2023-05-01T02:21:51.141Z,62.45
2023-05-01T02:22:51.114Z,62.62
2023-05-01T02:23:51.084Z,62.02
2023-05-01T02:24:51.067Z,61.98
2023-05-01T02:25:51.073Z,62.19
2023-05-01T02:26:51.080Z,62.26
2023-05-01T02:27:51.026Z,62.72
2023-05-01T02:28:51.009Z,62.19
2023-05-01T02:29:51.023Z,62.00
2023-05-01T02:30:51.027Z,61.98
2023-05-01T02:31:51.028Z,62.11
2023-05-01T02:32:51.121Z,62.77
2023-05-01T02:33:51.025Z,63.28
2023-05-01T02:34:50.934Z,62.66
2023-05-01T02:35:50.967Z,63.05
2023-05-01T02:36:50.918Z,62.79
2023-05-01T02:37:50.953Z,62.83
2023-05-01T02:38:50.879Z,63.02
2023-05-01T02:39:50.886Z,63.23
2023-05-01T02:40:50.939Z,63.26
2023-05-01T02:41:50.913Z,62.84
2023-05-01T02:42:50.892Z,62.82
2023-05-01T02:43:50.914Z,63.16
2023-05-01T02:44:50.858Z,63.09
2023-05-01T02:45:50.893Z,62.93
2023-05-01T02:46:50.863Z,63.63
2023-05-01T02:47:50.864Z,63.26
2023-05-01T02:48:50.849Z,63.01
2023-05-01T02:49:50.819Z,63.61
2023-05-01T02:50:50.770Z,63.23
2023-05-01T02:51:50.806Z,63.26
2023-05-01T02:52:50.775Z,62.91
2023-05-01T02:53:50.823Z,62.80
2023-05-01T02:54:50.792Z,62.39
2023-05-01T02:55:50.744Z,62.65
2023-05-01T02:56:50.719Z,62.78
2023-05-01T02:57:50.706Z,63.04
2023-05-01T02:58:50.697Z,64.76
2023-05-01T02:59:50.734Z,64.43
2023-05-01T03:00:50.767Z,64.80
2023-05-01T03:01:50.757Z,63.39
2023-05-01T03:02:50.689Z,63.08
2023-05-01T03:03:50.669Z,63.64
2023-05-01T03:04:50.616Z,63.88
2023-05-01T03:05:50.672Z,63.51
2023-05-01T03:06:50.674Z,62.85
2023-05-01T03:07:50.619Z,63.12
2023-05-01T03:08:50.605Z,63.36
2023-05-01T03:09:50.599Z,63.57
2023-05-01T03:10:50.593Z,63.49
2023-05-01T03:11:50.600Z,63.91
2023-05-01T03:12:50.552Z,63.80
2023-05-01T03:13:50.553Z,63.93
2023-05-01T03:14:50.530Z,63.94
2023-05-01T03:15:50.576Z,64.45
2023-05-01T03:16:50.674Z,64.34
2023-05-01T03:17:50.585Z,64.36
2023-05-01T03:18:50.518Z,64.30
2023-05-01T03:19:50.588Z,64.44
2023-05-01T03:20:50.503Z,64.45
2023-05-01T03:21:50.513Z,64.47
2023-05-01T03:22:50.432Z,64.67
2023-05-01T03:23:50.441Z,65.56
2023-05-01T03:24:50.443Z,64.92
2023-05-01T03:25:50.456Z,64.43
2023-05-01T03:26:51.293Z,63.73
2023-05-01T03:27:50.449Z,63.86
2023-05-01T03:28:50.371Z,64.34
2023-05-01T03:29:50.365Z,64.15
2023-05-01T03:30:50.365Z,64.07
2023-05-01T03:31:50.421Z,64.37
2023-05-01T03:32:50.367Z,64.25
2023-05-01T03:33:50.418Z,63.88
2023-05-01T03:34:50.336Z,64.17
2023-05-01T03:35:50.300Z,64.59
2023-05-01T03:36:50.281Z,64.42
2023-05-01T03:37:50.305Z,64.55
2023-05-01T03:38:50.284Z,64.12
2023-05-01T03:39:50.331Z,64.77
2023-05-01T03:40:50.315Z,64.77
2023-05-01T03:41:50.279Z,64.85
2023-05-01T03:42:50.228Z,64.70
2023-05-01T03:43:50.211Z,64.80
2023-05-01T03:44:50.251Z,64.38
2023-05-01T03:45:50.272Z,64.82
2023-05-01T03:46:50.212Z,64.75
2023-05-01T03:47:50.230Z,64.56
2023-05-01T03:48:50.239Z,64.67
2023-05-01T03:49:50.175Z,64.63
2023-05-01T03:50:50.154Z,64.40
2023-05-01T03:51:50.168Z,64.83
2023-05-01T03:52:50.149Z,64.65
2023-05-01T03:53:50.161Z,64.76
2023-05-01T03:54:50.187Z,64.31
2023-05-01T03:55:50.148Z,64.91
2023-05-01T03:56:50.151Z,64.38
2023-05-01T03:57:50.077Z,64.34
2023-05-01T03:58:50.082Z,64.21
2023-05-01T03:59:50.078Z,64.29
2023-05-01T04:00:50.119Z,64.23
2023-05-01T04:01:50.081Z,63.96
2023-05-01T04:02:50.186Z,64.21
2023-05-01T04:03:50.130Z,64.19
2023-05-01T04:04:50.055Z,63.67
2023-05-01T04:05:50.051Z,63.88
2023-05-01T04:06:50.033Z,64.24
2023-05-01T04:07:49.978Z,63.69
2023-05-01T04:08:49.998Z,64.60
2023-05-01T04:09:50.034Z,63.93
2023-05-01T04:10:49.939Z,64.06
2023-05-01T04:11:49.975Z,63.81
2023-05-01T04:12:49.943Z,64.25
2023-05-01T04:13:49.926Z,64.48
2023-05-01T04:14:49.916Z,64.17
2023-05-01T04:15:49.976Z,64.06
2023-05-01T04:16:49.874Z,64.45
2023-05-01T04:17:49.907Z,64.43
2023-05-01T04:18:49.869Z,64.22
2023-05-01T04:19:49.866Z,64.51
2023-05-01T04:20:49.875Z,64.00
2023-05-01T04:21:49.836Z,64.02
2023-05-01T04:22:49.844Z,64.64
2023-05-01T04:23:49.819Z,64.79
2023-05-01T04:24:49.815Z,64.65
2023-05-01T04:25:49.794Z,63.83
2023-05-01T04:26:49.816Z,64.70
2023-05-01T04:27:49.793Z,64.61
2023-05-01T04:28:49.757Z,64.74
2023-05-01T04:29:49.762Z,64.51
2023-05-01T04:30:49.749Z,64.68
2023-05-01T04:31:49.874Z,64.47
2023-05-01T04:32:49.790Z,64.90
2023-05-01T04:33:49.730Z,64.96
2023-05-01T04:34:49.698Z,64.64
2023-05-01T04:35:49.733Z,63.81
2023-05-01T04:36:49.656Z,64.33
2023-05-01T04:37:49.662Z,63.99
2023-05-01T04:38:49.674Z,64.22
2023-05-01T04:39:49.687Z,64.08
2023-05-01T04:40:49.647Z,63.85
2023-05-01T04:41:49.626Z,63.81
2023-05-01T04:42:49.604Z,64.14
2023-05-01T04:43:49.708Z,63.85
2023-05-01T04:44:49.619Z,63.64
2023-05-01T04:45:49.617Z,64.52
2023-05-01T04:46:49.713Z,64.09
2023-05-01T04:47:49.572Z,64.86
2023-05-01T04:48:49.579Z,64.57
2023-05-01T04:49:49.649Z,64.26
2023-05-01T04:50:49.655Z,64.14
2023-05-01T04:51:49.564Z,64.66
2023-05-01T04:52:49.518Z,64.75
2023-05-01T04:53:49.553Z,64.82
2023-05-01T04:54:49.529Z,64.48
2023-05-01T04:55:49.552Z,64.75
2023-05-01T04:56:49.577Z,64.97
2023-05-01T04:57:49.542Z,64.35
2023-05-01T04:58:49.456Z,64.60
2023-05-01T04:59:49.406Z,64.29
2023-05-01T05:00:49.432Z,64.16
2023-05-01T05:01:49.562Z,64.29
2023-05-01T05:02:49.462Z,64.56
2023-05-01T05:03:50.336Z,64.51
2023-05-01T05:04:49.402Z,64.25
2023-05-01T05:05:49.387Z,64.02
2023-05-01T05:06:49.454Z,64.01
2023-05-01T05:07:49.368Z,63.66
2023-05-01T05:08:49.410Z,63.19
2023-05-01T05:09:49.325Z,62.88
2023-05-01T05:10:49.306Z,63.21
2023-05-01T05:11:49.328Z,63.63
2023-05-01T05:12:49.371Z,63.93
2023-05-01T05:13:49.372Z,63.46
2023-05-01T05:14:49.304Z,62.50
2023-05-01T05:15:49.262Z,62.53
2023-05-01T05:16:49.398Z,62.98
2023-05-01T05:17:49.349Z,62.73
2023-05-01T05:18:49.238Z,63.38
2023-05-01T05:19:49.238Z,63.14
2023-05-01T05:20:49.227Z,62.22
2023-05-01T05:21:49.188Z,62.20
2023-05-01T05:22:49.193Z,62.30
2023-05-01T05:23:49.266Z,62.13
2023-05-01T05:24:49.218Z,62.35
2023-05-01T05:25:49.210Z,62.06
2023-05-01T05:26:49.184Z,62.49
2023-05-01T05:27:49.131Z,62.33
2023-05-01T05:28:49.126Z,63.05
2023-05-01T05:29:49.206Z,62.85
2023-05-01T05:30:49.141Z,62.88
2023-05-01T05:31:49.165Z,62.89
2023-05-01T05:32:49.191Z,62.54
2023-05-01T05:33:49.131Z,62.45
2023-05-01T05:34:49.146Z,62.02
2023-05-01T05:35:49.118Z,62.30
2023-05-01T05:36:49.107Z,62.25
2023-05-01T05:37:49.070Z,62.28
2023-05-01T05:38:49.086Z,62.06
2023-05-01T05:39:49.027Z,62.17
2023-05-01T05:40:49.042Z,62.81
2023-05-01T05:41:49.040Z,61.55
2023-05-01T05:42:48.989Z,62.52
2023-05-01T05:43:49.008Z,62.21
2023-05-01T05:44:50.117Z,62.43
2023-05-01T05:45:49.011Z,61.69
2023-05-01T05:46:48.959Z,62.37
2023-05-01T05:47:48.994Z,61.68
2023-05-01T05:48:48.953Z,60.81
2023-05-01T05:49:48.973Z,61.59
2023-05-01T05:50:48.930Z,61.52
2023-05-01T05:51:48.897Z,61.30
2023-05-01T05:52:48.881Z,60.73
2023-05-01T05:53:48.884Z,60.96
2023-05-01T05:54:48.927Z,60.68
2023-05-01T05:55:49.327Z,60.12
2023-05-01T05:56:48.884Z,61.11
2023-05-01T05:57:48.851Z,60.85
2023-05-01T05:58:48.889Z,60.59
2023-05-01T05:59:48.878Z,60.79
2023-05-01T06:00:48.896Z,60.77
2023-05-01T06:01:48.810Z,61.04
2023-05-01T06:02:48.970Z,60.50
2023-05-01T06:03:48.892Z,60.37
2023-05-01T06:04:48.752Z,61.62
2023-05-01T06:05:48.816Z,61.25
2023-05-01T06:06:48.905Z,61.25
2023-05-01T06:07:48.800Z,61.59
2023-05-01T06:08:48.751Z,61.60
2023-05-01T06:09:48.780Z,60.99
2023-05-01T06:10:48.724Z,60.83
2023-05-01T06:11:48.767Z,60.52
2023-05-01T06:12:57.109Z,61.03
2023-05-01T06:13:48.795Z,60.94
2023-05-01T06:14:48.676Z,60.84
2023-05-01T06:15:48.704Z,61.04
2023-05-01T06:16:48.673Z,60.74
2023-05-01T06:17:48.778Z,60.76
2023-05-01T06:18:48.630Z,61.21
2023-05-01T06:19:48.635Z,60.41
2023-05-01T06:20:48.621Z,60.71
2023-05-01T06:21:48.629Z,60.43
2023-05-01T06:22:48.612Z,60.65
2023-05-01T06:23:48.593Z,60.69
2023-05-01T06:24:48.563Z,60.24
2023-05-01T06:25:48.533Z,60.60
2023-05-01T06:26:48.523Z,60.73
2023-05-01T06:27:48.533Z,60.51
2023-05-01T06:28:48.481Z,60.56
2023-05-01T06:29:48.472Z,59.94
2023-05-01T06:30:48.497Z,58.69
2023-05-01T06:31:48.505Z,59.11
2023-05-01T06:32:48.615Z,59.33
2023-05-01T06:33:48.436Z,59.65
2023-05-01T06:34:48.424Z,59.64
2023-05-01T06:35:48.481Z,58.78
2023-05-01T06:36:48.451Z,58.51
2023-05-01T06:37:48.389Z,58.26
2023-05-01T06:38:48.387Z,59.00
2023-05-01T06:39:48.382Z,60.19
2023-05-01T06:40:48.375Z,59.63
2023-05-01T06:41:48.409Z,59.58
2023-05-01T06:42:48.336Z,59.58
2023-05-01T06:43:48.318Z,59.76
2023-05-01T06:44:48.307Z,59.41
2023-05-01T06:45:48.332Z,59.90
2023-05-01T06:46:48.353Z,58.82
2023-05-01T06:47:48.332Z,59.99
2023-05-01T06:48:48.287Z,60.56
2023-05-01T06:49:48.282Z,60.50
2023-05-01T06:50:48.315Z,58.93
2023-05-01T06:51:48.261Z,58.85
2023-05-01T06:52:48.233Z,58.42
2023-05-01T06:53:48.272Z,59.20
2023-05-01T06:54:48.252Z,58.92
2023-05-01T06:55:48.196Z,58.84
2023-05-01T06:56:48.238Z,58.83
2023-05-01T06:57:48.215Z,59.33
2023-05-01T06:58:48.191Z,58.78
2023-05-01T06:59:48.164Z,59.76
2023-05-01T07:00:48.385Z,58.96
2023-05-01T07:01:48.232Z,59.17
2023-05-01T07:02:48.314Z,58.86
2023-05-01T07:03:48.118Z,58.46
2023-05-01T07:04:48.098Z,58.61
2023-05-01T07:05:48.130Z,58.55
2023-05-01T07:06:48.254Z,58.64
2023-05-01T07:07:57.831Z,58.46
2023-05-01T07:08:48.103Z,58.36
2023-05-01T07:09:48.068Z,58.85
2023-05-01T07:10:48.328Z,58.79
2023-05-01T07:11:48.026Z,57.61
2023-05-01T07:12:48.015Z,57.63
2023-05-01T07:13:48.025Z,57.29
2023-05-01T07:14:47.990Z,57.30
2023-05-01T07:15:48.098Z,57.82
2023-05-01T07:16:48.039Z,58.28
2023-05-01T07:17:48.093Z,57.87
2023-05-01T07:18:47.955Z,56.73
2023-05-01T07:19:47.977Z,57.28
2023-05-01T07:20:48.271Z,57.12
2023-05-01T07:21:47.917Z,56.40
2023-05-01T07:22:47.912Z,56.67
2023-05-01T07:23:48.319Z,55.90
2023-05-01T07:24:47.897Z,56.16
2023-05-01T07:25:47.921Z,55.09
2023-05-01T07:26:47.862Z,54.89
2023-05-01T07:27:47.850Z,55.38
2023-05-01T07:28:47.843Z,55.80
2023-05-01T07:29:47.841Z,55.18
2023-05-01T07:30:47.821Z,55.47
2023-05-01T07:31:48.100Z,55.08
2023-05-01T07:32:47.881Z,54.95
2023-05-01T07:33:47.870Z,55.05
2023-05-01T07:34:47.794Z,55.08
2023-05-01T07:35:47.849Z,54.51
2023-05-01T07:36:47.781Z,55.12
2023-05-01T07:37:47.960Z,55.49
2023-05-01T07:38:47.771Z,54.14
2023-05-01T07:39:47.737Z,55.22
2023-05-01T07:40:47.718Z,56.54
2023-05-01T07:41:47.711Z,55.90
2023-05-01T07:42:47.740Z,55.97
2023-05-01T07:43:47.719Z,55.96
2023-05-01T07:44:47.683Z,55.15
2023-05-01T07:45:47.722Z,54.22
2023-05-01T07:46:47.655Z,55.24
2023-05-01T07:47:47.699Z,56.17
2023-05-01T07:48:47.640Z,54.31
2023-05-01T07:49:47.639Z,54.41
2023-05-01T07:50:47.615Z,54.72
2023-05-01T07:51:47.603Z,54.53
2023-05-01T07:52:47.582Z,54.61
2023-05-01T07:53:47.603Z,54.16
2023-05-01T07:54:47.595Z,54.95
2023-05-01T07:55:47.563Z,53.88
2023-05-01T07:56:49.198Z,54.23
2023-05-01T07:57:47.534Z,53.69
2023-05-01T07:58:47.535Z,54.32
2023-05-01T07:59:47.679Z,54.07
2023-05-01T08:00:47.755Z,52.92
2023-05-01T08:01:47.571Z,54.22
2023-05-01T08:02:47.583Z,53.90
2023-05-01T08:03:50.273Z,53.46
2023-05-01T08:04:47.562Z,52.41
2023-05-01T08:05:47.530Z,53.42
2023-05-01T08:06:47.586Z,54.55
2023-05-01T08:07:47.437Z,54.66
2023-05-01T08:08:47.444Z,53.34
2023-05-01T08:09:47.477Z,53.91
2023-05-01T08:10:47.486Z,53.01
2023-05-01T08:11:47.384Z,52.15
2023-05-01T08:12:47.509Z,53.25
2023-05-01T08:13:48.405Z,52.13
2023-05-01T08:14:47.596Z,52.50
2023-05-01T08:15:47.552Z,52.91
2023-05-01T08:16:47.400Z,52.85
2023-05-01T08:17:47.427Z,53.00
2023-05-01T08:18:47.340Z,51.17
2023-05-01T08:19:47.356Z,51.49
2023-05-01T08:20:47.372Z,51.22
2023-05-01T08:21:47.310Z,51.52
2023-05-01T08:22:47.286Z,50.33
2023-05-01T08:23:47.274Z,49.53
2023-05-01T08:24:47.302Z,50.30
2023-05-01T08:25:47.304Z,49.93
2023-05-01T08:26:47.303Z,49.35
2023-05-01T08:27:47.297Z,49.70
2023-05-01T08:28:47.207Z,48.70
2023-05-01T08:29:47.201Z,48.61
2023-05-01T08:30:47.355Z,48.99
2023-05-01T08:31:47.250Z,49.35
2023-05-01T08:32:47.274Z,48.86
2023-05-01T08:33:47.220Z,48.00
2023-05-01T08:34:47.169Z,48.30
2023-05-01T08:35:47.165Z,47.09
2023-05-01T08:36:47.225Z,47.96
2023-05-01T08:37:47.139Z,47.68
2023-05-01T08:38:47.165Z,47.39
2023-05-01T08:39:47.124Z,46.26
2023-05-01T08:40:47.258Z,45.57
2023-05-01T08:41:47.131Z,46.22
2023-05-01T08:42:47.200Z,46.84
2023-05-01T08:43:47.066Z,46.27
2023-05-01T08:44:47.034Z,46.27
2023-05-01T08:45:47.175Z,45.53
2023-05-01T08:46:47.118Z,45.64
2023-05-01T08:47:47.058Z,47.47
2023-05-01T08:48:47.047Z,47.02
2023-05-01T08:49:47.056Z,45.63
2023-05-01T08:50:47.004Z,45.15
2023-05-01T08:51:47.014Z,44.66
2023-05-01T08:52:46.958Z,44.64
2023-05-01T08:53:46.992Z,45.55
2023-05-01T08:54:46.979Z,45.30
2023-05-01T08:55:46.927Z,43.68
2023-05-01T08:56:47.039Z,45.20
2023-05-01T08:57:46.908Z,45.46
2023-05-01T08:58:46.899Z,42.46
2023-05-01T08:59:46.913Z,42.88
2023-05-01T09:00:46.880Z,42.56
2023-05-01T09:01:47.108Z,42.71
2023-05-01T09:02:46.882Z,41.64
2023-05-01T09:03:46.950Z,43.47
2023-05-01T09:04:46.824Z,42.13
2023-05-01T09:05:46.809Z,42.98
2023-05-01T09:06:46.856Z,43.77
2023-05-01T09:07:46.820Z,43.19
2023-05-01T09:08:46.799Z,44.49
2023-05-01T09:09:46.757Z,43.75
2023-05-01T09:10:46.838Z,44.42
2023-05-01T09:11:46.740Z,43.16
2023-05-01T09:12:46.730Z,41.68
2023-05-01T09:13:46.763Z,42.91
2023-05-01T09:14:46.768Z,45.18
2023-05-01T09:15:46.725Z,44.03
2023-05-01T09:16:46.781Z,43.58
2023-05-01T09:17:46.755Z,41.69
2023-05-01T09:18:46.755Z,39.97
2023-05-01T09:19:46.681Z,38.57
2023-05-01T09:20:46.700Z,39.86
2023-05-01T09:21:46.660Z,41.40
2023-05-01T09:22:46.653Z,40.28
2023-05-01T09:23:46.612Z,42.25
2023-05-01T09:24:46.631Z,42.00
2023-05-01T09:25:46.689Z,41.63
2023-05-01T09:26:46.708Z,40.52
2023-05-01T09:27:46.620Z,40.69
2023-05-01T09:28:46.589Z,40.00
2023-05-01T09:29:46.650Z,40.62
2023-05-01T09:30:46.587Z,40.31
2023-05-01T09:31:46.590Z,41.60
2023-05-01T09:32:46.599Z,41.68
2023-05-01T09:33:46.509Z,40.65
2023-05-01T09:34:46.540Z,40.56
2023-05-01T09:35:46.512Z,40.44
2023-05-01T09:36:46.469Z,41.92
2023-05-01T09:37:47.969Z,42.01
2023-05-01T09:38:46.453Z,42.48
2023-05-01T09:39:46.454Z,41.24
2023-05-01T09:40:46.441Z,41.16
2023-05-01T09:41:46.419Z,40.77
2023-05-01T09:42:46.403Z,42.37
2023-05-01T09:43:46.400Z,41.26
2023-05-01T09:44:46.455Z,41.65
2023-05-01T09:45:46.389Z,41.21
2023-05-01T09:46:46.366Z,38.70
2023-05-01T09:47:46.444Z,40.21
2023-05-01T09:48:46.343Z,40.50
2023-05-01T09:49:46.338Z,41.04
2023-05-01T09:50:46.339Z,40.85
2023-05-01T09:51:46.292Z,40.88
2023-05-01T09:52:46.322Z,41.00
2023-05-01T09:53:46.277Z,41.48
2023-05-01T09:54:46.264Z,39.19
2023-05-01T09:55:46.277Z,39.26
2023-05-01T09:56:46.251Z,39.92
2023-05-01T09:57:46.236Z,41.40
2023-05-01T09:58:46.290Z,41.71
2023-05-01T09:59:46.218Z,41.28
2023-05-01T10:00:47.475Z,41.15
2023-05-01T10:01:53.388Z,40.09
2023-05-01T10:02:46.285Z,40.77
2023-05-01T10:03:46.408Z,40.70
2023-05-01T10:04:46.182Z,42.01
2023-05-01T10:05:46.508Z,42.32
2023-05-01T10:06:46.276Z,41.53
2023-05-01T10:07:46.176Z,40.06
2023-05-01T10:08:46.168Z,39.53
2023-05-01T10:09:46.233Z,38.86
2023-05-01T10:10:46.152Z,39.74
2023-05-01T10:11:46.105Z,39.17
2023-05-01T10:12:46.120Z,38.49
2023-05-01T10:13:46.073Z,38.71
2023-05-01T10:14:46.075Z,40.50
2023-05-01T10:15:46.129Z,39.92
2023-05-01T10:16:46.067Z,37.78
2023-05-01T10:17:46.105Z,37.63
2023-05-01T10:18:46.065Z,36.72
2023-05-01T10:19:46.014Z,36.38
2023-05-01T10:20:46.089Z,36.64
2023-05-01T10:21:45.975Z,36.66
2023-05-01T10:22:46.065Z,37.23
2023-05-01T10:23:45.977Z,36.64
2023-05-01T10:24:45.978Z,36.38
2023-05-01T10:25:46.041Z,36.65
2023-05-01T10:26:45.926Z,36.43
2023-05-01T10:27:45.968Z,36.26
2023-05-01T10:28:45.919Z,36.16
2023-05-01T10:29:45.930Z,35.50
2023-05-01T10:30:45.921Z,35.34
2023-05-01T10:31:46.042Z,36.61
2023-05-01T10:32:45.874Z,38.26
2023-05-01T10:33:45.928Z,36.71
2023-05-01T10:34:45.836Z,37.64
2023-05-01T10:35:45.937Z,36.20
2023-05-01T10:36:45.890Z,36.98
2023-05-01T10:37:45.820Z,35.84
2023-05-01T10:38:46.054Z,35.29
2023-05-01T10:39:45.822Z,36.20
2023-05-01T10:40:45.798Z,34.31
2023-05-01T10:41:45.923Z,35.18
2023-05-01T10:42:45.785Z,33.89
2023-05-01T10:43:45.777Z,35.12
2023-05-01T10:44:45.890Z,35.37
2023-05-01T10:45:45.832Z,36.05
2023-05-01T10:46:45.744Z,37.44
2023-05-01T10:47:45.786Z,36.48
2023-05-01T10:48:45.845Z,35.48
2023-05-01T10:49:45.721Z,33.43
2023-05-01T10:50:45.721Z,34.97
2023-05-01T10:51:45.674Z,34.92
2023-05-01T10:52:45.655Z,35.80
2023-05-01T10:53:45.651Z,36.22
2023-05-01T10:54:45.661Z,36.71
2023-05-01T10:55:45.625Z,35.30
2023-05-01T10:56:45.663Z,34.83
2023-05-01T10:57:45.612Z,35.77
2023-05-01T10:58:45.631Z,35.21
2023-05-01T10:59:45.587Z,35.00
2023-05-01T11:00:45.569Z,34.50
2023-05-01T11:01:45.663Z,36.02
2023-05-01T11:02:45.573Z,36.71
2023-05-01T11:03:45.550Z,36.97
2023-05-01T11:04:45.550Z,36.84
2023-05-01T11:05:45.585Z,35.04
2023-05-01T11:06:45.577Z,34.97
2023-05-01T11:07:45.514Z,35.33
2023-05-01T11:08:46.415Z,35.29
2023-05-01T11:09:45.497Z,34.81
2023-05-01T11:10:45.490Z,37.34
2023-05-01T11:11:45.502Z,36.19
2023-05-01T11:12:45.498Z,37.65
2023-05-01T11:13:45.490Z,36.76
2023-05-01T11:14:45.456Z,35.74
2023-05-01T11:15:45.429Z,35.54
2023-05-01T11:16:45.480Z,36.70
2023-05-01T11:17:45.466Z,36.30
2023-05-01T11:18:45.392Z,35.32
2023-05-01T11:19:45.395Z,36.37
2023-05-01T11:20:45.355Z,35.67
2023-05-01T11:21:45.384Z,37.05
2023-05-01T11:22:45.346Z,36.76
2023-05-01T11:23:45.382Z,36.69
2023-05-01T11:24:45.333Z,37.72
2023-05-01T11:25:45.341Z,37.55
2023-05-01T11:26:45.376Z,37.50
2023-05-01T11:27:45.306Z,38.73
2023-05-01T11:28:45.307Z,37.82
2023-05-01T11:29:45.388Z,37.19
2023-05-01T11:30:45.319Z,36.68
2023-05-01T11:31:45.297Z,35.85
2023-05-01T11:32:45.360Z,35.70
2023-05-01T11:33:45.251Z,35.91
2023-05-01T11:34:45.204Z,35.97
2023-05-01T11:35:45.208Z,36.24
2023-05-01T11:36:45.189Z,35.55
2023-05-01T11:37:45.197Z,36.52
2023-05-01T11:38:45.282Z,36.96
2023-05-01T11:39:45.230Z,35.47
2023-05-01T11:40:45.145Z,35.34
2023-05-01T11:41:45.220Z,34.59
2023-05-01T11:42:45.149Z,34.32
2023-05-01T11:43:45.155Z,34.58
2023-05-01T11:44:45.130Z,36.28
2023-05-01T11:45:45.152Z,36.15
2023-05-01T11:46:45.195Z,37.34
2023-05-01T11:47:45.171Z,36.70
2023-05-01T11:48:45.542Z,37.34
2023-05-01T11:49:45.073Z,37.72
2023-05-01T11:50:45.155Z,37.76
2023-05-01T11:51:45.094Z,37.62
2023-05-01T11:52:45.055Z,38.73
2023-05-01T11:53:45.031Z,38.90
2023-05-01T11:54:45.040Z,39.19
2023-05-01T11:55:45.004Z,38.89
2023-05-01T11:56:45.038Z,38.39
2023-05-01T11:57:45.370Z,39.37
2023-05-01T11:58:44.987Z,37.62
2023-05-01T11:59:45.030Z,36.29
2023-05-01T12:00:44.948Z,37.12
2023-05-01T12:01:44.930Z,37.12
2023-05-01T12:02:44.997Z,38.80
2023-05-01T12:03:45.023Z,39.08
2023-05-01T12:04:44.963Z,37.31
2023-05-01T12:05:45.109Z,37.04
2023-05-01T12:06:45.112Z,37.32
2023-05-01T12:07:44.876Z,36.90
2023-05-01T12:08:44.893Z,37.62
2023-05-01T12:09:44.854Z,38.52
2023-05-01T12:10:44.862Z,36.64
2023-05-01T12:11:44.882Z,37.01
2023-05-01T12:12:44.814Z,37.64
2023-05-01T12:13:44.803Z,36.32
2023-05-01T12:14:44.825Z,36.66
2023-05-01T12:15:44.811Z,35.70
2023-05-01T12:16:44.894Z,35.41
2023-05-01T12:17:44.781Z,34.45
2023-05-01T12:18:44.844Z,34.15
2023-05-01T12:19:44.756Z,34.58
2023-05-01T12:20:44.758Z,35.22
2023-05-01T12:21:44.765Z,35.16
2023-05-01T12:22:44.743Z,36.03
2023-05-01T12:23:44.779Z,35.66
2023-05-01T12:24:44.781Z,35.49
2023-05-01T12:25:44.965Z,35.27
2023-05-01T12:26:44.720Z,36.23
2023-05-01T12:27:44.676Z,36.30
2023-05-01T12:28:44.686Z,36.59
2023-05-01T12:29:44.684Z,36.32
2023-05-01T12:30:44.624Z,36.84
2023-05-01T12:31:44.680Z,36.34
2023-05-01T12:32:44.668Z,37.37
2023-05-01T12:33:44.636Z,37.45
2023-05-01T12:34:44.582Z,37.57
2023-05-01T12:35:44.642Z,37.75
2023-05-01T12:36:44.797Z,38.22
2023-05-01T12:37:44.561Z,38.13
2023-05-01T12:38:44.519Z,37.52
2023-05-01T12:39:44.518Z,35.30
2023-05-01T12:40:44.515Z,35.91
2023-05-01T12:41:44.509Z,36.05
2023-05-01T12:42:44.514Z,36.06
2023-05-01T12:43:44.573Z,36.09
2023-05-01T12:44:44.494Z,37.02
2023-05-01T12:45:44.525Z,37.10
2023-05-01T12:46:44.547Z,37.06
2023-05-01T12:47:44.848Z,35.66
2023-05-01T12:48:44.468Z,36.66
2023-05-01T12:49:44.609Z,36.76
2023-05-01T12:50:46.641Z,36.72
2023-05-01T12:51:44.426Z,37.03
2023-05-01T12:52:44.426Z,36.80